Time;durP1;ratioP1;P1;durP2;ratioP2;P2;SDS_P1;SDS_P2;PMS_P1;PMS_P2;Temp;Humidity;BMP_temperature;BMP_pressure;BME280_temperature;BME280_humidity;BME280_pressure;Samples;Min_cycle;Max_cycle;Signal;HPM_P1;HPM_P2
2023/12/15 00:01:38;;;;;;;16.65;11.02;;;6.00;99.90;;;;;;4969304;28;20513;-66
2023/12/15 00:04:05;;;;;;;19.63;10.73;;;6.20;99.90;;;;;;4972310;28;20101;-65
2023/12/15 00:06:32;;;;;;;16.58;10.27;;;6.10;99.90;;;;;;4988877;28;20055;-65
2023/12/15 00:08:58;;;;;;;16.73;11.25;;;6.00;99.90;;;;;;4988466;28;20046;-65
2023/12/15 00:11:24;;;;;;;17.13;11.18;;;6.20;99.90;;;;;;4988894;28;20442;-65
2023/12/15 00:13:51;;;;;;;19.02;11.45;;;6.30;99.90;;;;;;4971896;28;20076;-65
2023/12/15 00:16:17;;;;;;;16.70;11.10;;;6.10;99.90;;;;;;4988923;28;20108;-65
2023/12/15 00:18:44;;;;;;;15.65;11.63;;;6.20;99.90;;;;;;4988585;28;20142;-65
2023/12/15 00:21:10;;;;;;;16.95;11.85;;;6.20;99.90;;;;;;4988352;28;20058;-65
2023/12/15 00:23:37;;;;;;;16.98;11.13;;;6.30;99.90;;;;;;4972123;28;20054;-65
2023/12/15 00:26:03;;;;;;;20.05;11.90;;;6.30;99.90;;;;;;4988224;28;20387;-65
2023/12/15 00:28:30;;;;;;;22.27;11.98;;;6.20;99.90;;;;;;4988091;28;20576;-64
2023/12/15 00:30:56;;;;;;;20.80;12.32;;;6.30;99.90;;;;;;4989154;28;20062;-65
2023/12/15 00:33:22;;;;;;;19.80;13.70;;;6.20;99.90;;;;;;4971854;28;20046;-65
2023/12/15 00:35:49;;;;;;;20.33;12.35;;;6.20;99.90;;;;;;4968709;28;20098;-65
2023/12/15 00:38:16;;;;;;;19.23;13.50;;;6.40;99.90;;;;;;4952397;28;20054;-65
2023/12/15 00:40:42;;;;;;;21.85;13.38;;;6.30;99.90;;;;;;4968496;28;20063;-65
2023/12/15 00:43:08;;;;;;;22.08;14.15;;;6.30;99.90;;;;;;4967760;28;20101;-65
2023/12/15 00:45:35;;;;;;;20.30;14.15;;;6.50;99.90;;;;;;4982622;28;20089;-66
2023/12/15 00:48:01;;;;;;;20.38;12.80;;;6.30;99.90;;;;;;4971724;28;20378;-65
2023/12/15 00:50:28;;;;;;;24.30;13.40;;;6.30;99.90;;;;;;4972022;28;20189;-65
2023/12/15 00:52:57;;;;;;;22.45;13.40;;;6.30;99.90;;;;;;4987238;28;20046;-65
2023/12/15 00:55:23;;;;;;;19.30;13.90;;;6.30;99.90;;;;;;4971240;28;20056;-65
2023/12/15 00:57:49;;;;;;;21.80;13.93;;;6.40;99.90;;;;;;4987360;28;20058;-65
2023/12/15 01:00:16;;;;;;;20.05;13.55;;;6.50;99.90;;;;;;4987865;28;20058;-65
2023/12/15 01:02:42;;;;;;;22.27;14.60;;;6.50;99.90;;;;;;4971356;28;20042;-65
2023/12/15 01:05:09;;;;;;;24.52;14.00;;;6.60;99.90;;;;;;4987619;28;20058;-66
2023/12/15 01:07:36;;;;;;;19.65;13.80;;;6.60;99.90;;;;;;4971277;28;20072;-65
2023/12/15 01:10:02;;;;;;;23.95;14.13;;;6.60;99.90;;;;;;4972479;28;20050;-65
2023/12/15 01:12:29;;;;;;;19.77;13.80;;;6.50;99.90;;;;;;4988004;28;20058;-66
2023/12/15 01:14:56;;;;;;;24.35;15.00;;;6.40;99.90;;;;;;4988096;28;20064;-65
2023/12/15 01:17:22;;;;;;;23.90;15.65;;;6.50;99.90;;;;;;4987993;28;20054;-65
2023/12/15 01:19:48;;;;;;;25.88;14.77;;;6.70;99.90;;;;;;4988463;28;20610;-66
2023/12/15 01:22:14;;;;;;;22.23;14.43;;;6.70;99.90;;;;;;4987528;28;20437;-67
2023/12/15 01:24:41;;;;;;;22.02;13.25;;;6.70;99.90;;;;;;4971259;28;20064;-65
2023/12/15 01:27:07;;;;;;;21.92;14.10;;;6.70;99.90;;;;;;4988616;28;20081;-65
2023/12/15 01:29:33;;;;;;;25.90;14.43;;;6.70;99.90;;;;;;4987596;28;20054;-65
2023/12/15 01:32:00;;;;;;;26.63;14.35;;;6.50;99.90;;;;;;4987319;28;20714;-65
2023/12/15 01:34:26;;;;;;;24.48;14.05;;;6.70;99.90;;;;;;4987629;28;20467;-64
2023/12/15 01:36:52;;;;;;;22.40;13.90;;;6.70;99.90;;;;;;4987051;28;20050;-64
2023/12/15 01:39:19;;;;;;;23.15;14.63;;;6.60;99.90;;;;;;4987202;28;20081;-65
2023/12/15 01:41:45;;;;;;;25.25;13.85;;;6.60;99.90;;;;;;4987044;28;20050;-64
2023/12/15 01:44:11;;;;;;;27.15;14.73;;;6.60;99.90;;;;;;4986171;28;20467;-65
2023/12/15 01:46:38;;;;;;;23.38;15.00;;;6.60;99.90;;;;;;4987171;28;20449;-65
2023/12/15 01:49:04;;;;;;;26.48;14.70;;;6.70;99.90;;;;;;4986662;28;20206;-65
2023/12/15 01:51:31;;;;;;;22.73;15.05;;;6.60;99.90;;;;;;4986452;28;20481;-65
2023/12/15 01:53:57;;;;;;;25.85;14.90;;;6.50;99.90;;;;;;4985738;28;20042;-65
2023/12/15 01:56:23;;;;;;;26.55;15.48;;;6.40;99.90;;;;;;4986570;28;20054;-65
2023/12/15 01:58:50;;;;;;;25.00;15.43;;;6.70;99.90;;;;;;4986532;28;20080;-65
2023/12/15 02:01:16;;;;;;;24.27;15.07;;;6.50;99.90;;;;;;4986600;28;20054;-66
2023/12/15 02:03:42;;;;;;;25.90;14.90;;;6.70;99.90;;;;;;4985797;28;20054;-66
2023/12/15 02:06:08;;;;;;;24.52;15.93;;;6.70;99.90;;;;;;4986474;28;20050;-65
2023/12/15 02:08:35;;;;;;;27.92;15.68;;;6.70;99.90;;;;;;4969466;28;20047;-65
2023/12/15 02:11:01;;;;;;;30.13;16.05;;;6.60;99.90;;;;;;4970623;28;20077;-65
2023/12/15 02:13:28;;;;;;;27.90;17.58;;;6.60;99.90;;;;;;4986560;28;20497;-65
2023/12/15 02:15:54;;;;;;;33.53;17.42;;;6.80;99.90;;;;;;4986256;28;20133;-65
2023/12/15 02:18:21;;;;;;;30.05;16.92;;;6.80;99.90;;;;;;4986152;28;20097;-65
2023/12/15 02:20:47;;;;;;;29.08;16.55;;;6.50;99.90;;;;;;4986010;28;20086;-65
2023/12/15 02:23:14;;;;;;;31.85;18.35;;;6.70;99.90;;;;;;4986113;28;20056;-65
2023/12/15 02:25:40;;;;;;;27.67;15.77;;;6.70;99.90;;;;;;4986270;28;20059;-65
2023/12/15 02:28:06;;;;;;;30.27;17.00;;;6.70;99.90;;;;;;4986641;28;20054;-65
2023/12/15 02:30:33;;;;;;;27.92;16.50;;;6.60;99.90;;;;;;4986732;28;20058;-64
2023/12/15 02:32:59;;;;;;;32.65;17.27;;;6.80;99.90;;;;;;4969687;28;20310;-65
2023/12/15 02:35:25;;;;;;;31.55;16.48;;;6.80;99.90;;;;;;4985663;28;20049;-66
2023/12/15 02:37:52;;;;;;;30.80;16.98;;;6.80;99.90;;;;;;4986068;28;20046;-66
2023/12/15 02:40:18;;;;;;;29.45;16.52;;;6.60;99.90;;;;;;4986532;28;20148;-66
2023/12/15 02:42:45;;;;;;;28.23;16.45;;;6.60;99.90;;;;;;4985627;28;20086;-67
2023/12/15 02:45:11;;;;;;;30.35;16.00;;;6.50;99.90;;;;;;4985205;28;20046;-65
2023/12/15 02:47:37;;;;;;;30.38;16.77;;;6.80;99.90;;;;;;4986477;28;20046;-65
2023/12/15 02:50:04;;;;;;;32.80;16.67;;;6.70;99.90;;;;;;4986714;28;20073;-65
2023/12/15 02:52:30;;;;;;;28.95;16.08;;;6.50;99.90;;;;;;4985744;28;20046;-65
2023/12/15 02:54:57;;;;;;;32.72;16.50;;;6.70;99.90;;;;;;4986131;28;20557;-65
2023/12/15 02:57:23;;;;;;;31.40;16.23;;;6.60;99.90;;;;;;4986290;28;20072;-64
2023/12/15 02:59:49;;;;;;;34.92;17.65;;;6.80;99.90;;;;;;4986476;28;20062;-66
2023/12/15 03:02:16;;;;;;;37.50;17.33;;;6.80;99.90;;;;;;4985722;28;20057;-65
2023/12/15 03:04:42;;;;;;;31.73;17.30;;;6.60;99.90;;;;;;4969640;28;20080;-65
2023/12/15 03:07:08;;;;;;;33.03;18.15;;;6.70;99.90;;;;;;4985897;28;20386;-64
2023/12/15 03:09:34;;;;;;;39.92;17.33;;;6.60;99.90;;;;;;4985662;28;20145;-66
2023/12/15 03:12:02;;;;;;;32.08;16.85;;;6.50;99.90;;;;;;4985643;28;20047;-66
2023/12/15 03:14:28;;;;;;;30.40;17.58;;;6.50;99.90;;;;;;4985802;28;20098;-65
2023/12/15 03:16:55;;;;;;;37.28;17.83;;;6.60;99.90;;;;;;4986071;28;20051;-65
2023/12/15 03:19:21;;;;;;;36.30;18.27;;;6.60;99.90;;;;;;4968953;28;20058;-65
2023/12/15 03:21:47;;;;;;;39.42;18.15;;;6.60;99.90;;;;;;4984564;28;20065;-65
2023/12/15 03:24:14;;;;;;;34.40;18.08;;;6.60;99.90;;;;;;4984987;28;20061;-65
2023/12/15 03:26:40;;;;;;;32.25;17.45;;;6.50;99.90;;;;;;4985718;28;20066;-66
2023/12/15 03:29:09;;;;;;;36.70;19.25;;;6.70;99.90;;;;;;4986209;28;20046;-64
2023/12/15 03:31:36;;;;;;;38.10;17.38;;;6.60;99.90;;;;;;4985984;28;20069;-65
2023/12/15 03:34:02;;;;;;;33.47;18.65;;;6.70;99.90;;;;;;4985384;28;20073;-64
2023/12/15 03:36:30;;;;;;;37.97;17.85;;;6.40;99.90;;;;;;4966092;28;20054;-65
2023/12/15 03:38:57;;;;;;;33.47;17.75;;;6.40;99.90;;;;;;4966541;28;20446;-65
2023/12/15 03:41:23;;;;;;;31.40;15.70;;;6.70;99.90;;;;;;4966114;28;20058;-66
2023/12/15 03:43:49;;;;;;;34.45;16.75;;;6.70;99.90;;;;;;4949886;28;20466;-64
2023/12/15 03:46:16;;;;;;;32.45;17.67;;;6.30;99.90;;;;;;4968337;28;20067;-65
2023/12/15 03:48:42;;;;;;;31.08;16.08;;;6.70;99.90;;;;;;4985820;28;20047;-65
2023/12/15 03:51:08;;;;;;;30.83;16.98;;;6.70;99.90;;;;;;4985634;28;20471;-65
2023/12/15 03:53:35;;;;;;;31.02;16.27;;;6.30;99.90;;;;;;4984970;28;20494;-65
2023/12/15 03:56:01;;;;;;;29.48;17.27;;;6.30;99.90;;;;;;4965915;28;20351;-66
2023/12/15 03:58:27;;;;;;;34.60;17.25;;;6.30;99.90;;;;;;4965872;28;20059;-65
2023/12/15 04:00:54;;;;;;;32.05;16.70;;;6.30;99.90;;;;;;4966117;28;20078;-65
2023/12/15 04:03:20;;;;;;;33.83;17.02;;;6.60;99.90;;;;;;4965383;28;20298;-65
2023/12/15 04:05:46;;;;;;;34.42;16.63;;;6.60;99.90;;;;;;4979574;28;20160;-63
2023/12/15 04:08:13;;;;;;;30.77;17.10;;;6.30;99.90;;;;;;4984910;28;20061;-65
2023/12/15 04:10:39;;;;;;;33.25;17.00;;;6.50;99.90;;;;;;4969294;28;20183;-65
2023/12/15 04:13:06;;;;;;;36.65;17.52;;;6.30;99.90;;;;;;4985012;28;20164;-65
2023/12/15 04:15:32;;;;;;;35.00;17.33;;;6.60;99.90;;;;;;4985175;28;20805;-65
2023/12/15 04:18:03;;;;;;;32.42;18.27;;;6.40;99.90;;;;;;4984876;28;20187;-65
2023/12/15 04:20:29;;;;;;;33.88;17.67;;;6.30;99.90;;;;;;4985037;28;20058;-64
2023/12/15 04:22:56;;;;;;;33.25;16.10;;;6.60;99.90;;;;;;4984437;28;20050;-64
2023/12/15 04:25:22;;;;;;;29.50;15.55;;;6.20;99.90;;;;;;4984504;28;20050;-65
2023/12/15 04:27:49;;;;;;;32.17;16.88;;;6.50;99.90;;;;;;4984947;28;20347;-65
2023/12/15 04:30:15;;;;;;;29.50;16.35;;;6.20;99.90;;;;;;4984653;28;20396;-65
2023/12/15 04:32:41;;;;;;;29.60;16.25;;;6.50;99.90;;;;;;4971159;28;20053;-65
2023/12/15 04:35:08;;;;;;;33.40;18.02;;;6.40;99.90;;;;;;4971886;28;20046;-65
2023/12/15 04:37:34;;;;;;;30.85;16.85;;;6.30;99.90;;;;;;4988233;28;20046;-66
2023/12/15 04:40:01;;;;;;;28.58;16.65;;;6.40;99.90;;;;;;4971914;28;20054;-65
2023/12/15 04:42:28;;;;;;;34.17;16.42;;;6.50;99.90;;;;;;4987879;28;20449;-65
2023/12/15 04:44:55;;;;;;;31.45;16.73;;;6.30;99.90;;;;;;4971500;28;20077;-66
2023/12/15 04:47:21;;;;;;;32.35;16.67;;;6.30;99.90;;;;;;4987175;28;20058;-66
2023/12/15 04:49:47;;;;;;;31.35;16.70;;;6.00;99.90;;;;;;4987863;28;20438;-65
2023/12/15 04:52:14;;;;;;;33.58;16.70;;;6.30;99.90;;;;;;4987216;28;20046;-65
2023/12/15 04:54:40;;;;;;;32.38;16.08;;;6.10;99.90;;;;;;4987618;28;20085;-66
2023/12/15 04:57:06;;;;;;;28.35;15.88;;;6.10;99.90;;;;;;4988344;28;20054;-65
2023/12/15 04:59:39;;;;;;;33.67;17.38;;;6.10;99.90;;;;;;4987848;28;20389;-66
2023/12/15 05:02:06;;;;;;;30.27;16.55;;;6.00;99.90;;;;;;4971374;28;20069;-65
2023/12/15 05:04:34;;;;;;;35.67;17.75;;;5.90;99.90;;;;;;4987731;28;20342;-65
2023/12/15 05:07:01;;;;;;;32.53;16.88;;;5.90;99.90;;;;;;4971541;28;20070;-65
2023/12/15 05:09:28;;;;;;;32.22;16.55;;;6.10;99.90;;;;;;4987503;28;20443;-66
2023/12/15 05:11:55;;;;;;;30.60;16.67;;;5.90;99.90;;;;;;4987104;28;20054;-66
2023/12/15 05:14:21;;;;;;;35.60;16.52;;;6.10;99.90;;;;;;4971277;28;20062;-65
2023/12/15 05:16:47;;;;;;;33.63;16.85;;;6.00;99.90;;;;;;4987183;28;20060;-65
2023/12/15 05:19:14;;;;;;;37.33;17.08;;;6.00;99.90;;;;;;4987599;28;20054;-65
2023/12/15 05:21:40;;;;;;;33.47;16.30;;;6.10;99.90;;;;;;4986947;28;20054;-65
2023/12/15 05:24:06;;;;;;;28.60;14.85;;;6.10;99.90;;;;;;4971500;28;20406;-66
2023/12/15 05:26:33;;;;;;;29.73;16.08;;;5.80;99.90;;;;;;4987682;28;20137;-65
2023/12/15 05:28:59;;;;;;;32.33;16.25;;;5.90;99.90;;;;;;4992054;28;20035;-65
2023/12/15 05:31:25;;;;;;;32.40;15.60;;;6.20;99.90;;;;;;4975764;28;20043;-66
2023/12/15 05:33:52;;;;;;;32.90;16.70;;;5.80;99.90;;;;;;4976363;28;20378;-65
2023/12/15 05:36:19;;;;;;;35.20;18.30;;;5.80;99.90;;;;;;4978148;28;20177;-65
2023/12/15 05:38:50;;;;;;;31.65;15.07;;;5.90;99.90;;;;;;4976374;28;20073;-66
2023/12/15 05:41:16;;;;;;;31.15;15.55;;;6.10;99.90;;;;;;4976762;28;20335;-65
2023/12/15 05:43:44;;;;;;;30.67;16.23;;;6.00;99.90;;;;;;4975291;28;20140;-65
2023/12/15 05:46:10;;;;;;;33.15;15.95;;;5.80;99.90;;;;;;4976694;28;20047;-65
2023/12/15 05:48:36;;;;;;;31.85;15.90;;;5.80;99.90;;;;;;4959262;28;20073;-64
2023/12/15 05:51:06;;;;;;;31.30;15.90;;;5.90;99.90;;;;;;4980526;28;20050;-65
2023/12/15 05:53:32;;;;;;;30.95;14.65;;;5.90;99.90;;;;;;4974533;28;20545;-65
2023/12/15 05:55:59;;;;;;;31.77;15.98;;;5.90;99.90;;;;;;4955239;28;20398;-67
2023/12/15 05:58:25;;;;;;;29.45;16.77;;;5.80;99.90;;;;;;4967035;28;20095;-65
2023/12/15 06:00:51;;;;;;;30.40;15.18;;;5.60;99.90;;;;;;4967742;28;20474;-65
2023/12/15 06:03:18;;;;;;;31.50;16.23;;;5.90;99.90;;;;;;4967112;28;20057;-64
2023/12/15 06:05:44;;;;;;;40.10;16.27;;;5.70;99.90;;;;;;4960614;28;20091;-65
2023/12/15 06:08:11;;;;;;;32.83;15.77;;;5.90;99.90;;;;;;4984638;28;20047;-65
2023/12/15 06:10:37;;;;;;;34.53;15.15;;;5.80;99.90;;;;;;4986587;28;20039;-66
2023/12/15 06:13:05;;;;;;;28.33;14.30;;;5.70;99.90;;;;;;4985914;28;20050;-65
2023/12/15 06:15:32;;;;;;;30.50;15.70;;;5.80;99.90;;;;;;4966291;28;20073;-65
2023/12/15 06:17:58;;;;;;;29.27;14.88;;;5.80;99.90;;;;;;4967922;28;20514;-66
2023/12/15 06:20:24;;;;;;;26.35;15.02;;;5.70;99.90;;;;;;4955087;28;20047;-64
2023/12/15 06:22:51;;;;;;;31.67;15.25;;;5.70;99.90;;;;;;4974772;28;20054;-66
2023/12/15 06:25:17;;;;;;;27.20;14.82;;;5.70;99.90;;;;;;4972095;28;20400;-66
2023/12/15 06:27:43;;;;;;;29.75;15.63;;;5.60;99.90;;;;;;4976753;28;20129;-66
2023/12/15 06:30:10;;;;;;;26.80;14.73;;;5.70;99.90;;;;;;4984896;28;20122;-65
2023/12/15 06:32:37;;;;;;;29.55;15.98;;;5.60;99.90;;;;;;4966630;28;20051;-65
2023/12/15 06:35:05;;;;;;;29.65;15.10;;;5.50;99.90;;;;;;4973338;28;20034;-65
2023/12/15 06:37:31;;;;;;;29.75;14.27;;;5.50;99.90;;;;;;4984995;28;20065;-66
2023/12/15 06:39:58;;;;;;;29.33;14.68;;;5.60;99.90;;;;;;4967071;28;20046;-66
2023/12/15 06:42:24;;;;;;;30.13;15.35;;;5.70;99.90;;;;;;4966718;28;20065;-66
2023/12/15 06:44:51;;;;;;;34.10;15.48;;;5.70;99.90;;;;;;4972512;28;20050;-66
2023/12/15 06:47:17;;;;;;;32.20;15.68;;;5.50;99.90;;;;;;4955383;28;20057;-66
2023/12/15 06:49:43;;;;;;;26.80;13.38;;;5.50;99.90;;;;;;4953755;28;20042;-66
2023/12/15 06:52:10;;;;;;;26.33;13.30;;;5.50;99.90;;;;;;4951533;28;20130;-67
2023/12/15 06:54:39;;;;;;;27.95;13.63;;;5.50;99.90;;;;;;4965393;28;20058;-67
2023/12/15 06:57:06;;;;;;;28.38;15.02;;;5.70;99.90;;;;;;4965565;28;20086;-66
2023/12/15 06:59:32;;;;;;;28.60;13.77;;;5.70;99.90;;;;;;4966019;28;20342;-66
2023/12/15 07:01:59;;;;;;;30.73;13.65;;;5.50;99.90;;;;;;4969683;28;20042;-66
2023/12/15 07:04:25;;;;;;;27.42;12.73;;;5.70;99.90;;;;;;4957539;28;20444;-66
2023/12/15 07:06:53;;;;;;;25.88;13.93;;;5.80;99.90;;;;;;4976431;28;20047;-66
2023/12/15 07:09:19;;;;;;;25.38;12.70;;;5.60;99.90;;;;;;4980563;28;20496;-66
2023/12/15 07:11:45;;;;;;;23.83;12.30;;;5.60;99.90;;;;;;4975126;28;20139;-66
2023/12/15 07:14:12;;;;;;;23.15;12.18;;;5.70;99.90;;;;;;4977513;28;20136;-66
2023/12/15 07:16:38;;;;;;;27.65;13.13;;;5.80;99.90;;;;;;4961583;28;20072;-68
2023/12/15 07:19:04;;;;;;;21.95;12.52;;;5.60;99.90;;;;;;4959635;28;20189;-67
2023/12/15 07:21:31;;;;;;;24.45;13.50;;;5.70;99.90;;;;;;4985665;28;20058;-66
2023/12/15 07:23:58;;;;;;;22.30;12.57;;;5.70;99.90;;;;;;4964178;28;20133;-67
2023/12/15 07:26:24;;;;;;;26.90;12.38;;;5.60;99.90;;;;;;4987870;28;20058;-66
2023/12/15 07:28:50;;;;;;;24.90;13.57;;;5.90;99.90;;;;;;4987379;28;20080;-67
2023/12/15 07:31:16;;;;;;;24.88;13.25;;;5.80;99.90;;;;;;4987887;28;20062;-67
2023/12/15 07:33:43;;;;;;;25.92;13.93;;;5.70;99.90;;;;;;4987279;28;20057;-67
2023/12/15 07:36:10;;;;;;;24.88;12.90;;;5.80;99.90;;;;;;4987383;28;20534;-67
2023/12/15 07:38:36;;;;;;;28.40;13.57;;;5.80;99.90;;;;;;4987636;28;20060;-67
2023/12/15 07:41:03;;;;;;;25.42;13.52;;;5.90;99.90;;;;;;4987775;28;20351;-67
2023/12/15 07:43:29;;;;;;;24.20;13.23;;;5.70;99.90;;;;;;4987892;28;20059;-66
2023/12/15 07:45:55;;;;;;;23.35;12.75;;;5.90;99.90;;;;;;4970799;28;20529;-67
2023/12/15 07:48:22;;;;;;;23.50;12.63;;;5.90;99.90;;;;;;4971083;28;20054;-67
2023/12/15 07:50:48;;;;;;;24.02;12.98;;;6.00;99.90;;;;;;4987166;28;20051;-66
2023/12/15 07:53:14;;;;;;;22.38;12.32;;;6.00;99.90;;;;;;4971334;28;20091;-66
2023/12/15 07:55:41;;;;;;;25.40;13.43;;;5.80;99.90;;;;;;4987369;28;20409;-67
2023/12/15 07:58:11;;;;;;;25.17;13.20;;;5.80;99.90;;;;;;4987039;28;20443;-67
2023/12/15 08:00:37;;;;;;;26.55;12.60;;;5.80;99.90;;;;;;4987284;28;20050;-67
2023/12/15 08:03:03;;;;;;;23.67;13.10;;;5.80;99.90;;;;;;4987660;28;20061;-67
2023/12/15 08:05:30;;;;;;;33.40;12.98;;;6.00;99.90;;;;;;4967383;28;20051;-67
2023/12/15 08:07:58;;;;;;;22.40;11.45;;;6.10;99.90;;;;;;4970535;28;20051;-66
2023/12/15 08:10:26;;;;;;;27.48;13.10;;;5.90;99.90;;;;;;4971120;28;20073;-67
2023/12/15 08:12:53;;;;;;;29.35;12.85;;;6.10;99.90;;;;;;4955454;28;20055;-67
2023/12/15 08:15:19;;;;;;;41.95;13.25;;;6.00;99.90;;;;;;4979687;28;20383;-66
2023/12/15 08:17:45;;;;;;;35.10;13.25;;;6.20;99.90;;;;;;4973862;28;20046;-67
2023/12/15 08:20:12;;;;;;;38.03;14.63;;;6.10;99.90;;;;;;4990011;28;20057;-67
2023/12/15 08:22:38;;;;;;;29.52;11.07;;;6.20;99.90;;;;;;4990245;28;20050;-66
2023/12/15 08:25:05;;;;;;;22.95;11.02;;;6.10;99.90;;;;;;4989764;28;20060;-68
2023/12/15 08:27:31;;;;;;;23.27;11.80;;;6.20;99.90;;;;;;4989479;28;20068;-67
2023/12/15 08:29:59;;;;;;;21.25;10.43;;;6.20;99.90;;;;;;4989773;28;20423;-67
2023/12/15 08:32:25;;;;;;;18.65;10.13;;;6.00;99.90;;;;;;4990139;28;20055;-67
2023/12/15 08:34:52;;;;;;;23.90;10.93;;;6.20;99.90;;;;;;4986205;28;20042;-67
2023/12/15 08:37:18;;;;;;;21.42;10.00;;;6.30;99.90;;;;;;4978831;28;20061;-67
2023/12/15 08:39:45;;;;;;;24.40;9.77;;;6.10;99.90;;;;;;4978297;28;20051;-67
2023/12/15 08:42:11;;;;;;;21.30;10.73;;;6.10;99.90;;;;;;4964341;28;20638;-67
2023/12/15 08:44:38;;;;;;;19.05;9.75;;;6.30;99.90;;;;;;4964991;28;20089;-67
2023/12/15 08:47:04;;;;;;;18.80;9.85;;;6.50;99.90;;;;;;4962003;28;20509;-66
2023/12/15 08:49:31;;;;;;;22.13;9.82;;;6.50;99.90;;;;;;4978712;28;20061;-66
2023/12/15 08:51:57;;;;;;;20.98;9.73;;;6.50;99.90;;;;;;4979037;28;20045;-66
2023/12/15 08:54:23;;;;;;;20.33;8.75;;;6.40;99.90;;;;;;4965010;28;20051;-66
2023/12/15 08:56:50;;;;;;;20.52;9.20;;;6.50;99.90;;;;;;4963923;28;20050;-68
2023/12/15 08:59:16;;;;;;;22.95;8.85;;;6.50;99.90;;;;;;4970072;28;20113;-67
2023/12/15 09:01:42;;;;;;;21.83;8.93;;;6.80;99.90;;;;;;4970447;28;20065;-68
2023/12/15 09:04:09;;;;;;;23.75;8.70;;;6.80;99.90;;;;;;4970162;28;20047;-67
2023/12/15 09:06:35;;;;;;;19.08;9.10;;;6.60;99.90;;;;;;4988739;28;20066;-67
2023/12/15 09:09:02;;;;;;;21.65;8.38;;;6.90;99.90;;;;;;4989570;28;20065;-67
2023/12/15 09:11:28;;;;;;;22.40;8.10;;;6.80;99.90;;;;;;4989990;28;20050;-67
2023/12/15 09:13:55;;;;;;;20.95;7.93;;;6.90;99.90;;;;;;4989402;28;20050;-68
2023/12/15 09:16:21;;;;;;;22.77;8.30;;;6.90;99.90;;;;;;4989447;28;20050;-68
2023/12/15 09:18:47;;;;;;;22.10;8.30;;;7.00;99.90;;;;;;4989243;28;20131;-68
2023/12/15 09:21:14;;;;;;;22.33;9.32;;;6.90;99.90;;;;;;4989183;28;20141;-67
2023/12/15 09:23:41;;;;;;;30.80;10.00;;;7.30;99.90;;;;;;4989630;28;20145;-69
2023/12/15 09:26:07;;;;;;;25.27;7.70;;;7.10;99.90;;;;;;4989461;28;20053;-68
2023/12/15 09:28:34;;;;;;;24.95;8.13;;;7.00;99.90;;;;;;4972924;28;20481;-67
2023/12/15 09:31:01;;;;;;;30.27;8.43;;;7.10;99.90;;;;;;4989013;28;20070;-68
2023/12/15 09:33:27;;;;;;;29.17;7.78;;;7.20;99.90;;;;;;4985851;28;20050;-68
2023/12/15 09:35:55;;;;;;;27.48;8.80;;;7.20;99.90;;;;;;4978969;28;20348;-66
2023/12/15 09:38:21;;;;;;;20.10;8.35;;;7.50;99.90;;;;;;4974459;28;20042;-66
2023/12/15 09:40:48;;;;;;;22.58;8.25;;;7.40;99.90;;;;;;4964142;28;20415;-67
2023/12/15 09:43:14;;;;;;;21.35;8.38;;;7.40;99.90;;;;;;4977365;28;20451;-66
2023/12/15 09:45:41;;;;;;;21.50;7.85;;;7.40;99.90;;;;;;4980519;28;20061;-66
2023/12/15 09:48:08;;;;;;;20.35;6.70;;;7.60;99.90;;;;;;4972569;28;20065;-67
2023/12/15 09:50:38;;;;;;;19.88;8.23;;;7.40;99.90;;;;;;4972879;28;20046;-66
2023/12/15 09:53:04;;;;;;;24.05;6.78;;;7.60;99.90;;;;;;4988623;28;20052;-66
2023/12/15 09:55:31;;;;;;;20.67;7.18;;;7.80;99.90;;;;;;4988377;28;20145;-66
2023/12/15 09:58:00;;;;;;;15.18;7.13;;;7.90;99.90;;;;;;4988261;28;20474;-67
2023/12/15 10:00:28;;;;;;;19.85;6.93;;;7.90;99.90;;;;;;4988716;28;20212;-66
2023/12/15 10:02:54;;;;;;;25.90;8.90;;;7.70;99.90;;;;;;4988611;28;20058;-67
2023/12/15 10:05:23;;;;;;;30.15;8.05;;;7.70;99.90;;;;;;4988223;28;20454;-67
2023/12/15 10:07:49;;;;;;;38.83;12.32;;;8.00;99.90;;;;;;4971530;28;20475;-67
2023/12/15 10:10:16;;;;;;;30.83;11.73;;;8.00;99.90;;;;;;4988365;28;20066;-67
2023/12/15 10:12:43;;;;;;;32.20;11.73;;;8.00;99.90;;;;;;4988035;28;20050;-67
2023/12/15 10:15:09;;;;;;;24.75;8.45;;;8.00;99.90;;;;;;4972276;28;20644;-67
2023/12/15 10:17:36;;;;;;;22.10;7.15;;;8.20;99.90;;;;;;4988137;28;20382;-66
2023/12/15 10:20:10;;;;;;;17.95;6.82;;;8.00;99.90;;;;;;4963673;28;20058;-67
2023/12/15 10:22:38;;;;;;;23.42;7.00;;;7.90;99.90;;;;;;4964306;28;20042;-67
2023/12/15 10:25:22;;;;;;;15.32;6.18;;;8.00;99.90;;;;;;4978810;28;20061;-68
2023/12/15 10:27:49;;;;;;;20.35;5.68;;;8.10;99.90;;;;;;4979084;28;20072;-68
2023/12/15 10:30:19;;;;;;;24.00;6.13;;;8.10;99.90;;;;;;4964032;28;20069;-67
2023/12/15 10:32:46;;;;;;;18.13;6.32;;;8.30;99.90;;;;;;4971729;28;20132;-68
2023/12/15 10:35:13;;;;;;;20.40;6.30;;;8.40;99.90;;;;;;4988123;28;20056;-66
2023/12/15 10:37:41;;;;;;;16.27;6.20;;;8.30;99.90;;;;;;4987541;28;20669;-66
2023/12/15 10:40:09;;;;;;;19.77;6.20;;;8.40;99.90;;;;;;4988127;28;20046;-66
2023/12/15 10:42:35;;;;;;;24.35;6.70;;;8.10;99.90;;;;;;4972150;28;20470;-67
2023/12/15 10:45:04;;;;;;;20.13;5.95;;;8.40;99.90;;;;;;4987938;28;20054;-67
2023/12/15 10:47:32;;;;;;;28.55;6.55;;;8.40;99.90;;;;;;4973849;28;20097;-66
2023/12/15 10:50:01;;;;;;;24.90;5.75;;;8.10;99.90;;;;;;4953551;28;20478;-66
2023/12/15 10:52:28;;;;;;;22.67;5.93;;;8.40;99.90;;;;;;4969905;28;20062;-67
2023/12/15 10:54:59;;;;;;;18.95;5.38;;;8.40;99.90;;;;;;4957133;28;20055;-67
2023/12/15 10:57:25;;;;;;;24.13;5.28;;;8.40;99.90;;;;;;4988549;28;20085;-68
2023/12/15 10:59:52;;;;;;;20.25;6.10;;;8.20;99.90;;;;;;4988301;28;20059;-67
2023/12/15 11:02:20;;;;;;;23.67;5.53;;;8.40;99.90;;;;;;4988279;28;20474;-68
2023/12/15 11:04:48;;;;;;;22.50;6.30;;;8.50;99.90;;;;;;4972792;28;20054;-68
2023/12/15 11:07:20;;;;;;;20.50;5.28;;;8.20;99.90;;;;;;4971706;28;20057;-68
2023/12/15 11:09:47;;;;;;;;;;;8.30;99.90;;;;;;4988695;28;20098;-67
2023/12/15 11:12:23;;;;;;;20.38;5.47;;;8.30;99.90;;;;;;4988146;28;19925;-67
2023/12/15 11:14:54;;;;;;;18.73;4.97;;;8.60;99.90;;;;;;4987928;28;20112;-67
2023/12/15 11:17:21;;;;;;;22.05;5.35;;;8.40;99.90;;;;;;4983855;28;20148;-67
2023/12/15 11:19:56;;;;;;;19.67;5.13;;;8.50;99.90;;;;;;4971222;28;20058;-68
2023/12/15 11:22:22;;;;;;;15.73;4.63;;;8.60;99.90;;;;;;4984594;28;20058;-67
2023/12/15 11:24:48;;;;;;;23.83;5.40;;;8.40;99.90;;;;;;4971086;28;20455;-69
2023/12/15 11:27:15;;;;;;;17.67;5.60;;;8.50;99.90;;;;;;4971060;28;20046;-67
2023/12/15 11:29:42;;;;;;;16.77;4.70;;;8.60;99.90;;;;;;4978214;28;20092;-67
2023/12/15 11:32:33;;;;;;;23.27;5.30;;;8.50;99.90;;;;;;4968690;28;20620;-67
2023/12/15 11:34:59;;;;;;;17.85;5.57;;;8.80;99.90;;;;;;4987255;28;20050;-67
2023/12/15 11:37:27;;;;;;;18.17;4.72;;;8.50;99.90;;;;;;4987262;28;20133;-67
2023/12/15 11:39:54;;;;;;;20.13;6.68;;;8.60;99.90;;;;;;4971526;28;20062;-67
2023/12/15 11:42:23;;;;;;;25.95;6.28;;;8.80;99.90;;;;;;4989201;28;20062;-68
2023/12/15 11:44:50;;;;;;;21.35;5.78;;;8.70;99.90;;;;;;4990933;28;20072;-67
2023/12/15 11:47:16;;;;;;;24.33;5.57;;;8.60;99.90;;;;;;4990058;28;20067;-67
2023/12/15 11:49:42;;;;;;;19.35;5.53;;;8.60;99.90;;;;;;4990886;28;20085;-68
2023/12/15 11:52:14;;;;;;;22.75;5.72;;;8.80;99.90;;;;;;4974219;28;20050;-67
2023/12/15 11:54:41;;;;;;;18.15;5.45;;;8.80;99.90;;;;;;4974100;28;20050;-68
2023/12/15 11:57:07;;;;;;;21.55;5.72;;;8.70;99.90;;;;;;4974369;28;20061;-68
2023/12/15 11:59:44;;;;;;;16.58;4.68;;;8.80;99.90;;;;;;4990472;28;20082;-67
2023/12/15 12:02:17;;;;;;;20.85;5.80;;;8.80;99.90;;;;;;4990320;28;20474;-67
2023/12/15 12:04:46;;;;;;;21.88;5.53;;;8.80;99.90;;;;;;4990010;28;20064;-67
2023/12/15 12:07:13;;;;;;;20.90;6.32;;;9.00;99.90;;;;;;4989635;28;20119;-67
2023/12/15 12:09:40;;;;;;;22.88;6.13;;;9.00;99.90;;;;;;4990382;28;20047;-66
2023/12/15 12:12:07;;;;;;;29.92;6.90;;;8.90;99.90;;;;;;4990326;28;20469;-66
2023/12/15 12:14:33;;;;;;;23.13;6.53;;;8.90;99.90;;;;;;4989865;28;20058;-68
2023/12/15 12:17:01;;;;;;;24.73;5.10;;;9.20;99.90;;;;;;4970733;28;20227;-66
2023/12/15 12:19:37;;;;;;;19.13;5.82;;;9.20;99.90;;;;;;4971373;28;20050;-66
2023/12/15 12:22:08;;;;;;;21.83;5.43;;;9.20;99.90;;;;;;4987481;28;20057;-66
2023/12/15 12:24:34;;;;;;;20.83;6.00;;;9.00;99.90;;;;;;4991282;28;20054;-68
2023/12/15 12:27:01;;;;;;;25.02;7.05;;;9.20;99.90;;;;;;4989405;28;20076;-66
2023/12/15 12:29:31;;;;;;;23.15;6.68;;;9.10;99.90;;;;;;4990006;28;20053;-66
2023/12/15 12:31:57;;;;;;;24.73;7.05;;;9.00;99.90;;;;;;4989756;28;20443;-66
2023/12/15 12:34:24;;;;;;;25.25;6.10;;;9.10;99.90;;;;;;4989790;28;20459;-66
2023/12/15 12:36:50;;;;;;;18.40;5.05;;;9.10;99.90;;;;;;4989583;28;20123;-65
2023/12/15 12:39:22;;;;;;;16.55;4.72;;;9.30;99.90;;;;;;4990166;28;20478;-65